sensor_id;sensor_type;location;lat;lon;timestamp;P1;durP1;ratioP1;P2;durP2;ratioP2
781;SDS011;374;52.568;13.402;2022-12-07T00:00:48;9.77;;;7.30;;
781;SDS011;374;52.568;13.402;2022-12-07T00:03:13;13.80;;;8.87;;
781;SDS011;374;52.568;13.402;2022-12-07T00:05:39;12.77;;;8.70;;
781;SDS011;374;52.568;13.402;2022-12-07T00:08:04;13.60;;;8.00;;
781;SDS011;374;52.568;13.402;2022-12-07T00:10:30;13.63;;;8.67;;
781;SDS011;374;52.568;13.402;2022-12-07T00:12:58;13.17;;;7.50;;
781;SDS011;374;52.568;13.402;2022-12-07T00:15:24;10.50;;;7.90;;
781;SDS011;374;52.568;13.402;2022-12-07T00:17:50;13.07;;;8.90;;
781;SDS011;374;52.568;13.402;2022-12-07T00:20:15;12.20;;;8.40;;
781;SDS011;374;52.568;13.402;2022-12-07T00:22:41;13.77;;;8.60;;
781;SDS011;374;52.568;13.402;2022-12-07T00:25:06;12.87;;;8.27;;
781;SDS011;374;52.568;13.402;2022-12-07T00:27:32;12.27;;;8.70;;
781;SDS011;374;52.568;13.402;2022-12-07T00:29:57;14.50;;;9.90;;
781;SDS011;374;52.568;13.402;2022-12-07T00:32:22;14.80;;;9.60;;
781;SDS011;374;52.568;13.402;2022-12-07T00:34:48;14.23;;;8.67;;
781;SDS011;374;52.568;13.402;2022-12-07T00:37:13;14.83;;;8.63;;
781;SDS011;374;52.568;13.402;2022-12-07T00:39:39;11.77;;;8.73;;
781;SDS011;374;52.568;13.402;2022-12-07T00:42:04;12.67;;;8.87;;
781;SDS011;374;52.568;13.402;2022-12-07T00:44:30;12.07;;;9.50;;
781;SDS011;374;52.568;13.402;2022-12-07T00:46:55;11.60;;;8.37;;
781;SDS011;374;52.568;13.402;2022-12-07T00:49:21;14.10;;;8.57;;
781;SDS011;374;52.568;13.402;2022-12-07T00:51:49;14.90;;;9.83;;
781;SDS011;374;52.568;13.402;2022-12-07T00:54:15;13.43;;;8.57;;
781;SDS011;374;52.568;13.402;2022-12-07T00:56:40;12.00;;;7.80;;
781;SDS011;374;52.568;13.402;2022-12-07T00:59:06;16.20;;;8.40;;
781;SDS011;374;52.568;13.402;2022-12-07T01:01:32;13.33;;;8.73;;
781;SDS011;374;52.568;13.402;2022-12-07T01:04:00;13.33;;;9.50;;
781;SDS011;374;52.568;13.402;2022-12-07T01:06:26;13.00;;;8.73;;
781;SDS011;374;52.568;13.402;2022-12-07T01:08:52;16.70;;;8.83;;
781;SDS011;374;52.568;13.402;2022-12-07T01:11:19;12.93;;;9.07;;
781;SDS011;374;52.568;13.402;2022-12-07T01:13:46;13.03;;;8.50;;
781;SDS011;374;52.568;13.402;2022-12-07T01:16:12;13.30;;;8.40;;
781;SDS011;374;52.568;13.402;2022-12-07T01:18:39;14.90;;;8.93;;
781;SDS011;374;52.568;13.402;2022-12-07T01:21:15;12.90;;;8.33;;
781;SDS011;374;52.568;13.402;2022-12-07T01:23:44;12.27;;;8.83;;
781;SDS011;374;52.568;13.402;2022-12-07T01:26:10;12.50;;;8.57;;
781;SDS011;374;52.568;13.402;2022-12-07T01:28:37;12.80;;;8.60;;
781;SDS011;374;52.568;13.402;2022-12-07T01:31:04;13.90;;;8.60;;
781;SDS011;374;52.568;13.402;2022-12-07T01:33:33;14.33;;;9.53;;
781;SDS011;374;52.568;13.402;2022-12-07T01:36:02;13.10;;;8.20;;
781;SDS011;374;52.568;13.402;2022-12-07T01:38:27;12.53;;;8.37;;
781;SDS011;374;52.568;13.402;2022-12-07T01:40:54;10.70;;;7.97;;
781;SDS011;374;52.568;13.402;2022-12-07T01:43:20;13.00;;;7.47;;
781;SDS011;374;52.568;13.402;2022-12-07T01:45:48;13.33;;;7.93;;
781;SDS011;374;52.568;13.402;2022-12-07T01:48:14;13.33;;;8.37;;
781;SDS011;374;52.568;13.402;2022-12-07T01:50:43;11.43;;;7.77;;
781;SDS011;374;52.568;13.402;2022-12-07T01:53:13;11.53;;;7.90;;
781;SDS011;374;52.568;13.402;2022-12-07T01:55:40;10.23;;;7.37;;
781;SDS011;374;52.568;13.402;2022-12-07T01:58:09;11.70;;;7.87;;
781;SDS011;374;52.568;13.402;2022-12-07T02:00:36;10.97;;;7.07;;
781;SDS011;374;52.568;13.402;2022-12-07T02:03:07;13.67;;;7.70;;
781;SDS011;374;52.568;13.402;2022-12-07T02:05:37;12.13;;;6.83;;
781;SDS011;374;52.568;13.402;2022-12-07T02:08:05;9.17;;;7.20;;
781;SDS011;374;52.568;13.402;2022-12-07T02:10:31;9.63;;;7.53;;
781;SDS011;374;52.568;13.402;2022-12-07T02:13:01;10.70;;;8.03;;
781;SDS011;374;52.568;13.402;2022-12-07T02:21:20;11.60;;;7.70;;
781;SDS011;374;52.568;13.402;2022-12-07T02:27:01;7.33;;;6.53;;
781;SDS011;374;52.568;13.402;2022-12-07T02:32:31;8.17;;;6.03;;
781;SDS011;374;52.568;13.402;2022-12-07T02:37:39;8.53;;;6.23;;
781;SDS011;374;52.568;13.402;2022-12-07T02:45:38;10.30;;;7.67;;
781;SDS011;374;52.568;13.402;2022-12-07T02:48:06;9.40;;;7.10;;
781;SDS011;374;52.568;13.402;2022-12-07T02:50:34;8.43;;;6.40;;
781;SDS011;374;52.568;13.402;2022-12-07T02:53:00;9.10;;;6.60;;
781;SDS011;374;52.568;13.402;2022-12-07T02:55:28;12.43;;;7.87;;
781;SDS011;374;52.568;13.402;2022-12-07T03:01:01;9.37;;;6.37;;
781;SDS011;374;52.568;13.402;2022-12-07T03:03:33;13.40;;;8.30;;
781;SDS011;374;52.568;13.402;2022-12-07T03:06:05;12.50;;;8.00;;
781;SDS011;374;52.568;13.402;2022-12-07T03:12:13;13.40;;;8.27;;
781;SDS011;374;52.568;13.402;2022-12-07T03:14:49;9.70;;;7.47;;
781;SDS011;374;52.568;13.402;2022-12-07T03:17:24;11.07;;;9.00;;
781;SDS011;374;52.568;13.402;2022-12-07T03:19:54;10.63;;;8.07;;
781;SDS011;374;52.568;13.402;2022-12-07T03:22:22;12.60;;;9.10;;
781;SDS011;374;52.568;13.402;2022-12-07T03:24:50;11.70;;;8.73;;
781;SDS011;374;52.568;13.402;2022-12-07T03:27:20;12.60;;;8.20;;
781;SDS011;374;52.568;13.402;2022-12-07T03:30:03;12.93;;;8.47;;
781;SDS011;374;52.568;13.402;2022-12-07T03:32:33;11.77;;;7.93;;
781;SDS011;374;52.568;13.402;2022-12-07T03:35:07;12.90;;;8.50;;
781;SDS011;374;52.568;13.402;2022-12-07T03:40:22;13.97;;;9.90;;
781;SDS011;374;52.568;13.402;2022-12-07T03:43:04;17.83;;;10.23;;
781;SDS011;374;52.568;13.402;2022-12-07T03:45:37;18.63;;;10.27;;
781;SDS011;374;52.568;13.402;2022-12-07T03:50:58;13.50;;;8.93;;
781;SDS011;374;52.568;13.402;2022-12-07T03:53:40;14.47;;;9.60;;
781;SDS011;374;52.568;13.402;2022-12-07T03:56:11;23.00;;;12.33;;
781;SDS011;374;52.568;13.402;2022-12-07T03:58:37;16.60;;;10.73;;
781;SDS011;374;52.568;13.402;2022-12-07T04:01:04;18.43;;;11.60;;
781;SDS011;374;52.568;13.402;2022-12-07T04:03:30;17.97;;;10.60;;
781;SDS011;374;52.568;13.402;2022-12-07T04:05:55;18.00;;;10.20;;
781;SDS011;374;52.568;13.402;2022-12-07T04:08:22;14.50;;;10.73;;
781;SDS011;374;52.568;13.402;2022-12-07T04:10:48;16.07;;;9.97;;
781;SDS011;374;52.568;13.402;2022-12-07T04:13:14;20.10;;;11.47;;
781;SDS011;374;52.568;13.402;2022-12-07T04:15:40;18.73;;;11.30;;
781;SDS011;374;52.568;13.402;2022-12-07T04:18:06;16.10;;;10.63;;
781;SDS011;374;52.568;13.402;2022-12-07T04:20:31;17.43;;;11.33;;
781;SDS011;374;52.568;13.402;2022-12-07T04:22:57;16.80;;;11.23;;
781;SDS011;374;52.568;13.402;2022-12-07T04:25:22;17.03;;;11.20;;
781;SDS011;374;52.568;13.402;2022-12-07T04:27:48;16.50;;;10.77;;
781;SDS011;374;52.568;13.402;2022-12-07T04:30:13;17.57;;;11.63;;
781;SDS011;374;52.568;13.402;2022-12-07T04:32:39;18.87;;;10.93;;
781;SDS011;374;52.568;13.402;2022-12-07T04:35:04;14.77;;;10.87;;
781;SDS011;374;52.568;13.402;2022-12-07T04:37:30;17.40;;;12.20;;
781;SDS011;374;52.568;13.402;2022-12-07T04:39:56;22.53;;;12.70;;
781;SDS011;374;52.568;13.402;2022-12-07T04:42:21;19.37;;;12.57;;
781;SDS011;374;52.568;13.402;2022-12-07T04:44:47;17.63;;;11.87;;
781;SDS011;374;52.568;13.402;2022-12-07T04:47:12;18.20;;;11.07;;
781;SDS011;374;52.568;13.402;2022-12-07T04:49:37;18.90;;;12.57;;
781;SDS011;374;52.568;13.402;2022-12-07T04:52:03;17.00;;;12.13;;
781;SDS011;374;52.568;13.402;2022-12-07T04:54:29;21.83;;;12.57;;
781;SDS011;374;52.568;13.402;2022-12-07T04:56:54;22.30;;;13.93;;
781;SDS011;374;52.568;13.402;2022-12-07T04:59:19;19.57;;;11.77;;
781;SDS011;374;52.568;13.402;2022-12-07T05:01:45;17.30;;;13.37;;
781;SDS011;374;52.568;13.402;2022-12-07T05:04:11;21.20;;;13.07;;
781;SDS011;374;52.568;13.402;2022-12-07T05:06:36;22.87;;;14.47;;
781;SDS011;374;52.568;13.402;2022-12-07T05:09:02;23.67;;;13.30;;
781;SDS011;374;52.568;13.402;2022-12-07T05:11:28;19.70;;;13.67;;
781;SDS011;374;52.568;13.402;2022-12-07T05:14:03;25.33;;;16.47;;
781;SDS011;374;52.568;13.402;2022-12-07T05:16:40;26.23;;;14.27;;
781;SDS011;374;52.568;13.402;2022-12-07T05:19:06;21.80;;;14.47;;
781;SDS011;374;52.568;13.402;2022-12-07T05:21:32;23.70;;;14.70;;
781;SDS011;374;52.568;13.402;2022-12-07T05:23:58;24.50;;;15.83;;
781;SDS011;374;52.568;13.402;2022-12-07T05:26:24;24.40;;;14.70;;
781;SDS011;374;52.568;13.402;2022-12-07T05:28:50;25.83;;;15.87;;
781;SDS011;374;52.568;13.402;2022-12-07T05:31:17;25.40;;;16.57;;
781;SDS011;374;52.568;13.402;2022-12-07T05:33:42;26.40;;;16.00;;
781;SDS011;374;52.568;13.402;2022-12-07T05:36:08;25.10;;;15.53;;
781;SDS011;374;52.568;13.402;2022-12-07T05:38:33;26.00;;;15.33;;
781;SDS011;374;52.568;13.402;2022-12-07T05:41:00;28.77;;;17.00;;
781;SDS011;374;52.568;13.402;2022-12-07T05:43:26;28.13;;;16.53;;
781;SDS011;374;52.568;13.402;2022-12-07T05:45:52;25.70;;;16.30;;
781;SDS011;374;52.568;13.402;2022-12-07T05:48:17;21.80;;;14.77;;
781;SDS011;374;52.568;13.402;2022-12-07T05:50:43;25.03;;;16.70;;
781;SDS011;374;52.568;13.402;2022-12-07T05:53:08;24.17;;;16.93;;
781;SDS011;374;52.568;13.402;2022-12-07T05:55:34;28.90;;;17.20;;
781;SDS011;374;52.568;13.402;2022-12-07T05:57:59;25.20;;;16.37;;
781;SDS011;374;52.568;13.402;2022-12-07T06:00:43;23.80;;;15.87;;
781;SDS011;374;52.568;13.402;2022-12-07T06:03:08;25.30;;;15.93;;
781;SDS011;374;52.568;13.402;2022-12-07T06:05:34;24.80;;;16.73;;
781;SDS011;374;52.568;13.402;2022-12-07T06:07:59;27.93;;;17.37;;
781;SDS011;374;52.568;13.402;2022-12-07T06:10:25;30.43;;;18.03;;
781;SDS011;374;52.568;13.402;2022-12-07T06:12:50;23.73;;;15.10;;
781;SDS011;374;52.568;13.402;2022-12-07T06:15:15;32.13;;;17.87;;
781;SDS011;374;52.568;13.402;2022-12-07T06:17:41;29.40;;;16.90;;
781;SDS011;374;52.568;13.402;2022-12-07T06:20:07;25.77;;;15.90;;
781;SDS011;374;52.568;13.402;2022-12-07T06:22:32;26.17;;;16.23;;
781;SDS011;374;52.568;13.402;2022-12-07T06:24:58;27.73;;;15.97;;
781;SDS011;374;52.568;13.402;2022-12-07T06:27:23;23.57;;;15.20;;
781;SDS011;374;52.568;13.402;2022-12-07T06:29:49;29.97;;;16.50;;
781;SDS011;374;52.568;13.402;2022-12-07T06:32:14;26.27;;;15.93;;
781;SDS011;374;52.568;13.402;2022-12-07T06:34:40;26.10;;;16.50;;
781;SDS011;374;52.568;13.402;2022-12-07T06:37:05;21.33;;;13.00;;
781;SDS011;374;52.568;13.402;2022-12-07T06:39:31;26.77;;;14.50;;
781;SDS011;374;52.568;13.402;2022-12-07T06:41:57;20.40;;;13.10;;
781;SDS011;374;52.568;13.402;2022-12-07T06:44:23;23.30;;;14.27;;
781;SDS011;374;52.568;13.402;2022-12-07T06:46:49;22.97;;;14.23;;
781;SDS011;374;52.568;13.402;2022-12-07T06:49:15;22.37;;;14.30;;
781;SDS011;374;52.568;13.402;2022-12-07T06:51:41;27.17;;;16.43;;
781;SDS011;374;52.568;13.402;2022-12-07T06:54:07;25.00;;;14.70;;
781;SDS011;374;52.568;13.402;2022-12-07T06:56:33;28.33;;;17.03;;
781;SDS011;374;52.568;13.402;2022-12-07T06:58:59;26.47;;;16.80;;
781;SDS011;374;52.568;13.402;2022-12-07T07:01:24;24.47;;;15.30;;
781;SDS011;374;52.568;13.402;2022-12-07T07:03:50;23.80;;;14.43;;
781;SDS011;374;52.568;13.402;2022-12-07T07:06:15;23.00;;;15.30;;
781;SDS011;374;52.568;13.402;2022-12-07T07:08:41;24.67;;;16.07;;
781;SDS011;374;52.568;13.402;2022-12-07T07:11:07;22.37;;;15.37;;
781;SDS011;374;52.568;13.402;2022-12-07T07:13:33;26.53;;;15.30;;
781;SDS011;374;52.568;13.402;2022-12-07T07:15:59;26.60;;;15.50;;
781;SDS011;374;52.568;13.402;2022-12-07T07:18:25;28.33;;;14.80;;
781;SDS011;374;52.568;13.402;2022-12-07T07:20:51;25.77;;;15.93;;
781;SDS011;374;52.568;13.402;2022-12-07T07:23:18;29.53;;;16.10;;
781;SDS011;374;52.568;13.402;2022-12-07T07:25:44;22.30;;;15.33;;
781;SDS011;374;52.568;13.402;2022-12-07T07:28:10;31.83;;;15.70;;
781;SDS011;374;52.568;13.402;2022-12-07T07:30:36;26.00;;;15.23;;
781;SDS011;374;52.568;13.402;2022-12-07T07:33:01;26.17;;;15.57;;
781;SDS011;374;52.568;13.402;2022-12-07T07:35:30;32.67;;;16.23;;
781;SDS011;374;52.568;13.402;2022-12-07T07:37:58;21.43;;;14.50;;
781;SDS011;374;52.568;13.402;2022-12-07T07:40:24;28.80;;;15.53;;
781;SDS011;374;52.568;13.402;2022-12-07T07:42:53;24.67;;;14.23;;
781;SDS011;374;52.568;13.402;2022-12-07T07:45:20;24.23;;;13.93;;
781;SDS011;374;52.568;13.402;2022-12-07T07:47:47;22.80;;;14.43;;
781;SDS011;374;52.568;13.402;2022-12-07T07:50:12;18.83;;;14.00;;
781;SDS011;374;52.568;13.402;2022-12-07T07:52:38;19.47;;;13.53;;
781;SDS011;374;52.568;13.402;2022-12-07T07:55:04;18.00;;;12.23;;
781;SDS011;374;52.568;13.402;2022-12-07T07:57:33;18.30;;;11.37;;
781;SDS011;374;52.568;13.402;2022-12-07T07:59:59;18.07;;;12.43;;
781;SDS011;374;52.568;13.402;2022-12-07T08:02:24;17.10;;;12.27;;
781;SDS011;374;52.568;13.402;2022-12-07T08:04:50;14.17;;;9.80;;
781;SDS011;374;52.568;13.402;2022-12-07T08:07:15;17.63;;;10.20;;
781;SDS011;374;52.568;13.402;2022-12-07T08:09:41;17.10;;;9.23;;
781;SDS011;374;52.568;13.402;2022-12-07T08:12:07;13.10;;;8.93;;
781;SDS011;374;52.568;13.402;2022-12-07T08:14:34;13.00;;;9.03;;
781;SDS011;374;52.568;13.402;2022-12-07T08:16:59;12.77;;;8.57;;
781;SDS011;374;52.568;13.402;2022-12-07T08:19:25;14.70;;;9.20;;
781;SDS011;374;52.568;13.402;2022-12-07T08:21:51;10.67;;;7.57;;
781;SDS011;374;52.568;13.402;2022-12-07T08:24:17;11.13;;;7.90;;
781;SDS011;374;52.568;13.402;2022-12-07T08:26:42;11.60;;;8.13;;
781;SDS011;374;52.568;13.402;2022-12-07T08:29:08;8.57;;;6.40;;
781;SDS011;374;52.568;13.402;2022-12-07T08:31:34;10.60;;;6.70;;
781;SDS011;374;52.568;13.402;2022-12-07T08:34:00;11.37;;;6.90;;
781;SDS011;374;52.568;13.402;2022-12-07T08:36:25;10.37;;;6.50;;
781;SDS011;374;52.568;13.402;2022-12-07T08:38:51;7.60;;;5.80;;
781;SDS011;374;52.568;13.402;2022-12-07T08:41:17;12.40;;;6.30;;
781;SDS011;374;52.568;13.402;2022-12-07T08:43:42;7.37;;;5.77;;
781;SDS011;374;52.568;13.402;2022-12-07T08:46:09;7.20;;;5.40;;
781;SDS011;374;52.568;13.402;2022-12-07T08:48:44;6.30;;;5.63;;
781;SDS011;374;52.568;13.402;2022-12-07T08:51:17;10.67;;;5.57;;
781;SDS011;374;52.568;13.402;2022-12-07T08:53:44;8.27;;;4.97;;
781;SDS011;374;52.568;13.402;2022-12-07T08:56:10;5.97;;;5.37;;
781;SDS011;374;52.568;13.402;2022-12-07T08:58:35;6.67;;;5.33;;
781;SDS011;374;52.568;13.402;2022-12-07T09:01:03;7.80;;;5.23;;
781;SDS011;374;52.568;13.402;2022-12-07T09:03:29;12.53;;;5.23;;
781;SDS011;374;52.568;13.402;2022-12-07T09:05:55;9.00;;;6.10;;
781;SDS011;374;52.568;13.402;2022-12-07T09:08:21;6.80;;;5.20;;
781;SDS011;374;52.568;13.402;2022-12-07T09:10:51;8.07;;;4.90;;
781;SDS011;374;52.568;13.402;2022-12-07T09:13:16;6.67;;;5.17;;
781;SDS011;374;52.568;13.402;2022-12-07T09:15:42;5.50;;;4.77;;
781;SDS011;374;52.568;13.402;2022-12-07T09:18:07;5.40;;;3.97;;
781;SDS011;374;52.568;13.402;2022-12-07T09:20:33;5.60;;;4.50;;
781;SDS011;374;52.568;13.402;2022-12-07T09:22:58;5.33;;;4.53;;
781;SDS011;374;52.568;13.402;2022-12-07T09:25:24;6.80;;;5.00;;
781;SDS011;374;52.568;13.402;2022-12-07T09:27:54;5.40;;;3.60;;
781;SDS011;374;52.568;13.402;2022-12-07T09:30:21;3.73;;;3.40;;
781;SDS011;374;52.568;13.402;2022-12-07T09:32:46;5.00;;;3.50;;
781;SDS011;374;52.568;13.402;2022-12-07T09:35:12;4.00;;;3.47;;
781;SDS011;374;52.568;13.402;2022-12-07T09:37:37;4.10;;;3.73;;
781;SDS011;374;52.568;13.402;2022-12-07T09:40:03;3.57;;;3.10;;
781;SDS011;374;52.568;13.402;2022-12-07T09:42:32;4.43;;;3.37;;
781;SDS011;374;52.568;13.402;2022-12-07T09:45:19;7.03;;;3.90;;
781;SDS011;374;52.568;13.402;2022-12-07T09:47:58;5.80;;;3.33;;
781;SDS011;374;52.568;13.402;2022-12-07T09:50:24;4.00;;;3.60;;
781;SDS011;374;52.568;13.402;2022-12-07T09:52:52;5.60;;;3.90;;
781;SDS011;374;52.568;13.402;2022-12-07T09:55:24;6.67;;;3.80;;
781;SDS011;374;52.568;13.402;2022-12-07T09:57:52;5.13;;;4.50;;
781;SDS011;374;52.568;13.402;2022-12-07T10:00:19;6.37;;;3.97;;
781;SDS011;374;52.568;13.402;2022-12-07T10:02:56;4.63;;;3.23;;
781;SDS011;374;52.568;13.402;2022-12-07T10:06:06;5.63;;;3.77;;
781;SDS011;374;52.568;13.402;2022-12-07T10:08:14;3.77;;;3.27;;
781;SDS011;374;52.568;13.402;2022-12-07T10:10:42;3.90;;;3.60;;
781;SDS011;374;52.568;13.402;2022-12-07T10:13:09;4.10;;;3.73;;
781;SDS011;374;52.568;13.402;2022-12-07T10:15:46;4.33;;;3.90;;
781;SDS011;374;52.568;13.402;2022-12-07T10:21:13;3.70;;;3.30;;
781;SDS011;374;52.568;13.402;2022-12-07T10:24:26;3.30;;;3.00;;
781;SDS011;374;52.568;13.402;2022-12-07T10:26:32;4.20;;;3.47;;
781;SDS011;374;52.568;13.402;2022-12-07T10:29:00;4.00;;;3.00;;
781;SDS011;374;52.568;13.402;2022-12-07T10:32:31;3.10;;;2.80;;
781;SDS011;374;52.568;13.402;2022-12-07T10:34:39;3.80;;;3.13;;
781;SDS011;374;52.568;13.402;2022-12-07T10:39:52;4.17;;;3.80;;
781;SDS011;374;52.568;13.402;2022-12-07T10:42:37;3.50;;;2.90;;
781;SDS011;374;52.568;13.402;2022-12-07T10:47:44;3.80;;;3.20;;
781;SDS011;374;52.568;13.402;2022-12-07T10:53:10;4.40;;;3.43;;
781;SDS011;374;52.568;13.402;2022-12-07T10:55:57;3.93;;;3.53;;
781;SDS011;374;52.568;13.402;2022-12-07T11:15:12;5.00;;;4.50;;
781;SDS011;374;52.568;13.402;2022-12-07T11:20:37;7.97;;;3.73;;
781;SDS011;374;52.568;13.402;2022-12-07T11:23:18;5.03;;;3.87;;
781;SDS011;374;52.568;13.402;2022-12-07T11:25:54;5.17;;;3.40;;
781;SDS011;374;52.568;13.402;2022-12-07T11:34:13;12.67;;;5.23;;
781;SDS011;374;52.568;13.402;2022-12-07T11:36:44;6.87;;;4.60;;
781;SDS011;374;52.568;13.402;2022-12-07T11:39:23;6.23;;;4.67;;
781;SDS011;374;52.568;13.402;2022-12-07T11:41:57;7.23;;;4.53;;
781;SDS011;374;52.568;13.402;2022-12-07T11:47:20;8.67;;;4.33;;
781;SDS011;374;52.568;13.402;2022-12-07T11:49:58;5.93;;;4.73;;
781;SDS011;374;52.568;13.402;2022-12-07T11:55:16;12.10;;;5.47;;
781;SDS011;374;52.568;13.402;2022-12-07T11:57:49;6.10;;;5.03;;
781;SDS011;374;52.568;13.402;2022-12-07T12:00:21;5.63;;;5.13;;
781;SDS011;374;52.568;13.402;2022-12-07T12:05:37;7.40;;;6.23;;
781;SDS011;374;52.568;13.402;2022-12-07T12:08:14;7.07;;;5.43;;
781;SDS011;374;52.568;13.402;2022-12-07T12:10:58;7.10;;;5.60;;
781;SDS011;374;52.568;13.402;2022-12-07T12:16:31;7.97;;;5.63;;
781;SDS011;374;52.568;13.402;2022-12-07T12:19:25;8.27;;;6.07;;
781;SDS011;374;52.568;13.402;2022-12-07T12:22:14;5.40;;;4.90;;
781;SDS011;374;52.568;13.402;2022-12-07T12:24:43;8.37;;;5.20;;
781;SDS011;374;52.568;13.402;2022-12-07T12:27:18;12.93;;;6.97;;
781;SDS011;374;52.568;13.402;2022-12-07T12:29:52;7.57;;;5.37;;
781;SDS011;374;52.568;13.402;2022-12-07T12:32:20;7.13;;;4.70;;
781;SDS011;374;52.568;13.402;2022-12-07T12:37:52;6.10;;;4.30;;
781;SDS011;374;52.568;13.402;2022-12-07T12:42:56;5.63;;;4.57;;
781;SDS011;374;52.568;13.402;2022-12-07T12:45:29;6.90;;;4.67;;
781;SDS011;374;52.568;13.402;2022-12-07T12:54:03;5.73;;;3.57;;
781;SDS011;374;52.568;13.402;2022-12-07T12:56:41;5.93;;;4.43;;
781;SDS011;374;52.568;13.402;2022-12-07T12:59:36;7.03;;;4.03;;
781;SDS011;374;52.568;13.402;2022-12-07T13:10:24;8.33;;;4.43;;
781;SDS011;374;52.568;13.402;2022-12-07T13:20:48;4.17;;;3.77;;
781;SDS011;374;52.568;13.402;2022-12-07T13:23:36;5.70;;;3.93;;
781;SDS011;374;52.568;13.402;2022-12-07T13:31:35;8.90;;;4.20;;
781;SDS011;374;52.568;13.402;2022-12-07T13:36:56;6.50;;;3.60;;
781;SDS011;374;52.568;13.402;2022-12-07T13:39:23;5.23;;;3.40;;
781;SDS011;374;52.568;13.402;2022-12-07T13:41:51;9.40;;;4.03;;
781;SDS011;374;52.568;13.402;2022-12-07T13:44:18;5.80;;;4.03;;
781;SDS011;374;52.568;13.402;2022-12-07T13:49:29;6.43;;;3.63;;
781;SDS011;374;52.568;13.402;2022-12-07T13:54:47;5.33;;;3.70;;
781;SDS011;374;52.568;13.402;2022-12-07T13:57:19;5.53;;;3.47;;
781;SDS011;374;52.568;13.402;2022-12-07T13:59:45;5.33;;;3.53;;
781;SDS011;374;52.568;13.402;2022-12-07T14:02:18;5.50;;;3.37;;
781;SDS011;374;52.568;13.402;2022-12-07T14:04:46;4.10;;;2.87;;
781;SDS011;374;52.568;13.402;2022-12-07T14:07:26;3.53;;;2.50;;
781;SDS011;374;52.568;13.402;2022-12-07T14:10:03;2.80;;;2.50;;
781;SDS011;374;52.568;13.402;2022-12-07T14:12:31;6.00;;;3.03;;
781;SDS011;374;52.568;13.402;2022-12-07T14:15:00;8.33;;;3.97;;
781;SDS011;374;52.568;13.402;2022-12-07T14:17:27;7.03;;;3.10;;
781;SDS011;374;52.568;13.402;2022-12-07T14:19:53;5.50;;;3.17;;
781;SDS011;374;52.568;13.402;2022-12-07T14:22:25;3.90;;;3.00;;
781;SDS011;374;52.568;13.402;2022-12-07T14:27:38;4.57;;;2.97;;
781;SDS011;374;52.568;13.402;2022-12-07T14:30:04;6.10;;;4.03;;
781;SDS011;374;52.568;13.402;2022-12-07T14:32:31;8.57;;;4.40;;
781;SDS011;374;52.568;13.402;2022-12-07T14:35:10;5.60;;;4.00;;
781;SDS011;374;52.568;13.402;2022-12-07T14:37:37;4.20;;;3.73;;
781;SDS011;374;52.568;13.402;2022-12-07T14:40:04;4.37;;;3.30;;
781;SDS011;374;52.568;13.402;2022-12-07T14:42:31;5.20;;;4.17;;
781;SDS011;374;52.568;13.402;2022-12-07T14:44:58;4.80;;;3.43;;
781;SDS011;374;52.568;13.402;2022-12-07T14:47:26;4.10;;;3.50;;
781;SDS011;374;52.568;13.402;2022-12-07T14:49:52;4.83;;;3.13;;
781;SDS011;374;52.568;13.402;2022-12-07T14:52:28;7.10;;;3.70;;
781;SDS011;374;52.568;13.402;2022-12-07T14:54:55;8.70;;;3.80;;
781;SDS011;374;52.568;13.402;2022-12-07T14:57:20;5.67;;;3.43;;
781;SDS011;374;52.568;13.402;2022-12-07T14:59:46;6.20;;;4.03;;
781;SDS011;374;52.568;13.402;2022-12-07T15:02:12;3.97;;;3.03;;
781;SDS011;374;52.568;13.402;2022-12-07T15:04:38;5.43;;;3.40;;
781;SDS011;374;52.568;13.402;2022-12-07T15:07:05;4.17;;;3.10;;
781;SDS011;374;52.568;13.402;2022-12-07T15:09:34;9.00;;;5.40;;
781;SDS011;374;52.568;13.402;2022-12-07T15:11:59;10.37;;;4.20;;
781;SDS011;374;52.568;13.402;2022-12-07T15:14:25;3.80;;;3.30;;
781;SDS011;374;52.568;13.402;2022-12-07T15:16:50;3.93;;;3.10;;
781;SDS011;374;52.568;13.402;2022-12-07T15:19:17;5.20;;;2.93;;
781;SDS011;374;52.568;13.402;2022-12-07T15:21:44;8.53;;;3.50;;
781;SDS011;374;52.568;13.402;2022-12-07T15:24:10;3.93;;;2.87;;
781;SDS011;374;52.568;13.402;2022-12-07T15:26:37;10.03;;;3.20;;
781;SDS011;374;52.568;13.402;2022-12-07T15:29:03;4.10;;;3.03;;
781;SDS011;374;52.568;13.402;2022-12-07T15:31:29;6.20;;;2.93;;
781;SDS011;374;52.568;13.402;2022-12-07T15:34:07;6.07;;;3.10;;
781;SDS011;374;52.568;13.402;2022-12-07T15:36:35;7.37;;;4.07;;
781;SDS011;374;52.568;13.402;2022-12-07T15:39:03;5.77;;;4.07;;
781;SDS011;374;52.568;13.402;2022-12-07T15:41:29;8.27;;;3.10;;
781;SDS011;374;52.568;13.402;2022-12-07T15:43:54;6.00;;;3.00;;
781;SDS011;374;52.568;13.402;2022-12-07T15:46:39;4.27;;;3.00;;
781;SDS011;374;52.568;13.402;2022-12-07T15:49:07;4.20;;;3.80;;
781;SDS011;374;52.568;13.402;2022-12-07T15:51:41;5.60;;;3.80;;
781;SDS011;374;52.568;13.402;2022-12-07T15:54:11;7.23;;;3.47;;
781;SDS011;374;52.568;13.402;2022-12-07T15:56:50;4.60;;;3.23;;
781;SDS011;374;52.568;13.402;2022-12-07T15:59:16;4.87;;;3.83;;
781;SDS011;374;52.568;13.402;2022-12-07T16:01:41;4.87;;;3.77;;
781;SDS011;374;52.568;13.402;2022-12-07T16:04:07;4.10;;;3.00;;
781;SDS011;374;52.568;13.402;2022-12-07T16:06:33;8.03;;;3.90;;
781;SDS011;374;52.568;13.402;2022-12-07T16:08:58;8.37;;;3.67;;
781;SDS011;374;52.568;13.402;2022-12-07T16:11:24;4.80;;;3.37;;
781;SDS011;374;52.568;13.402;2022-12-07T16:13:49;10.67;;;3.50;;
781;SDS011;374;52.568;13.402;2022-12-07T16:16:16;6.93;;;3.53;;
781;SDS011;374;52.568;13.402;2022-12-07T16:18:43;3.13;;;2.93;;
781;SDS011;374;52.568;13.402;2022-12-07T16:21:10;5.30;;;3.30;;
781;SDS011;374;52.568;13.402;2022-12-07T16:23:36;4.60;;;3.57;;
781;SDS011;374;52.568;13.402;2022-12-07T16:26:09;6.23;;;3.07;;
781;SDS011;374;52.568;13.402;2022-12-07T16:28:38;7.10;;;3.20;;
781;SDS011;374;52.568;13.402;2022-12-07T16:31:05;6.10;;;3.60;;
781;SDS011;374;52.568;13.402;2022-12-07T16:33:34;3.33;;;3.03;;
781;SDS011;374;52.568;13.402;2022-12-07T16:36:00;6.40;;;4.27;;
781;SDS011;374;52.568;13.402;2022-12-07T16:38:26;8.80;;;3.90;;
781;SDS011;374;52.568;13.402;2022-12-07T16:40:52;4.30;;;3.90;;
781;SDS011;374;52.568;13.402;2022-12-07T16:43:18;4.83;;;3.13;;
781;SDS011;374;52.568;13.402;2022-12-07T16:45:44;6.10;;;4.40;;
781;SDS011;374;52.568;13.402;2022-12-07T16:48:11;5.17;;;3.87;;
781;SDS011;374;52.568;13.402;2022-12-07T16:50:38;8.93;;;5.07;;
781;SDS011;374;52.568;13.402;2022-12-07T16:53:06;7.47;;;3.83;;
781;SDS011;374;52.568;13.402;2022-12-07T16:55:34;13.27;;;3.67;;
781;SDS011;374;52.568;13.402;2022-12-07T16:58:01;5.30;;;4.17;;
781;SDS011;374;52.568;13.402;2022-12-07T17:00:27;8.47;;;4.10;;
781;SDS011;374;52.568;13.402;2022-12-07T17:02:52;5.27;;;3.97;;
781;SDS011;374;52.568;13.402;2022-12-07T17:05:19;3.83;;;3.30;;
781;SDS011;374;52.568;13.402;2022-12-07T17:07:44;6.27;;;3.83;;
781;SDS011;374;52.568;13.402;2022-12-07T17:10:10;6.17;;;3.80;;
781;SDS011;374;52.568;13.402;2022-12-07T17:12:36;15.40;;;3.90;;
781;SDS011;374;52.568;13.402;2022-12-07T17:15:01;5.13;;;3.67;;
781;SDS011;374;52.568;13.402;2022-12-07T17:17:45;6.80;;;3.60;;
781;SDS011;374;52.568;13.402;2022-12-07T17:20:15;6.27;;;3.73;;
781;SDS011;374;52.568;13.402;2022-12-07T17:22:42;7.40;;;4.33;;
781;SDS011;374;52.568;13.402;2022-12-07T17:25:07;7.67;;;4.50;;
781;SDS011;374;52.568;13.402;2022-12-07T17:27:37;7.93;;;4.13;;
781;SDS011;374;52.568;13.402;2022-12-07T17:30:05;12.00;;;5.30;;